Dennisville, NJ (08214)

9:21 PM EST on December 08, 2016 (GMT -0500)
| | Change Station

Elev -9999 ft 0.00 °N, 0.00 °E | Updated 1 minute ago

Clear
Clear
72 °F
Feels Like 72 °F
N
7
Wind Variable Wind from South
Gusts mph

Today
High -- | Low -- °F
--% Chance of Precip.
Yesterday
High -- | Low -- °F
Precip. -- in
Pressure 30.09 in
Visibility 10.0 miles
Clouds Clear
Dew Point 56 °F
Humidity 56%
Rainfall --
Snow Depth Not available.
7:06 AM 4:36 PM
Waxing Gibbous, 69% visible
METAR KWWD 090156Z AUTO 32014G19KT 10SM CLR 04/M06 A3008 RMK AO2 SLP187 T00391056 $
Pressure 30.09 in
Visibility 10.0 miles
Clouds Clear
Dew Point 56 °F
Humidity 56%
Rainfall --
Snow Depth Not available.
7:06 AM 4:36 PM
Waxing Gibbous, 69% visible
METAR KWWD 090156Z AUTO 32014G19KT 10SM CLR 04/M06 A3008 RMK AO2 SLP187 T00391056 $

10-Day Weather Forecast

Almanac

Astronomy

Dec. 08, 2016 Rise Set
Actual Time
Civil Twilight
Nautical Twilight
Astronomical Twilight
Moon
Length of Visible Light
Length of Day
Tomorrow will be .
, % of the Moon is Illuminated

Today's Extremes

State Highs State Lows

Community

WunderPhotos

Upload Photos

1,956,351 photos uploaded!

WunderBlog® & News

Nearby

Air Quality

  Air Quality AQ Index Pollutant
Not available.

Snow Depth

Station Depth Elevation

Earthquake Activity

City Distance Mag. Time & Date
Minimum magnitude displayed is 2.5.

Coastal Water Temperatures

Place Temperature

Stations

Nearby Weather Stations

Station Location Temp. Windchill Dew Point Humidity Wind Precip. Elev Updated Type
                   

Watches & Warnings

There are currently no watches in effect.